sensor_id;sensor_type;location;lat;lon;timestamp;temperature;humidity
5962;DHT22;3007;50.770;0.250;2023-05-07T00:01:25;14.40;99.90
5962;DHT22;3007;50.770;0.250;2023-05-07T00:03:52;14.30;99.90
5962;DHT22;3007;50.770;0.250;2023-05-07T00:06:19;14.30;99.90
5962;DHT22;3007;50.770;0.250;2023-05-07T00:08:46;14.30;99.90
5962;DHT22;3007;50.770;0.250;2023-05-07T00:11:13;14.20;99.90
5962;DHT22;3007;50.770;0.250;2023-05-07T00:13:41;14.20;99.90
5962;DHT22;3007;50.770;0.250;2023-05-07T00:16:08;14.10;99.90
5962;DHT22;3007;50.770;0.250;2023-05-07T00:18:35;14.10;99.90
5962;DHT22;3007;50.770;0.250;2023-05-07T00:21:02;14.00;99.90
5962;DHT22;3007;50.770;0.250;2023-05-07T00:23:29;14.00;99.90
5962;DHT22;3007;50.770;0.250;2023-05-07T00:25:56;13.90;99.90
5962;DHT22;3007;50.770;0.250;2023-05-07T00:28:23;13.90;99.90
5962;DHT22;3007;50.770;0.250;2023-05-07T00:30:51;13.90;99.90
5962;DHT22;3007;50.770;0.250;2023-05-07T00:33:18;13.90;99.90
5962;DHT22;3007;50.770;0.250;2023-05-07T00:35:46;13.80;99.90
5962;DHT22;3007;50.770;0.250;2023-05-07T00:38:13;13.80;99.90
5962;DHT22;3007;50.770;0.250;2023-05-07T00:40:39;13.80;99.90
5962;DHT22;3007;50.770;0.250;2023-05-07T00:43:06;13.80;99.90
5962;DHT22;3007;50.770;0.250;2023-05-07T00:45:34;13.80;99.90
5962;DHT22;3007;50.770;0.250;2023-05-07T00:48:03;13.80;99.90
5962;DHT22;3007;50.770;0.250;2023-05-07T00:50:30;13.90;99.90
5962;DHT22;3007;50.770;0.250;2023-05-07T00:52:58;13.80;99.90
5962;DHT22;3007;50.770;0.250;2023-05-07T00:55:25;13.90;99.90
5962;DHT22;3007;50.770;0.250;2023-05-07T00:57:53;13.90;99.90
5962;DHT22;3007;50.770;0.250;2023-05-07T01:00:21;13.90;99.90
5962;DHT22;3007;50.770;0.250;2023-05-07T01:02:48;13.90;99.90
5962;DHT22;3007;50.770;0.250;2023-05-07T01:05:17;13.90;99.90
5962;DHT22;3007;50.770;0.250;2023-05-07T01:07:45;13.90;99.90
5962;DHT22;3007;50.770;0.250;2023-05-07T01:10:13;13.90;99.90
5962;DHT22;3007;50.770;0.250;2023-05-07T01:12:41;14.00;99.90
5962;DHT22;3007;50.770;0.250;2023-05-07T01:15:09;14.00;99.90
5962;DHT22;3007;50.770;0.250;2023-05-07T01:17:37;14.00;99.90
5962;DHT22;3007;50.770;0.250;2023-05-07T01:20:05;14.00;99.90
5962;DHT22;3007;50.770;0.250;2023-05-07T01:22:35;14.10;99.90
5962;DHT22;3007;50.770;0.250;2023-05-07T01:25:04;14.10;99.90
5962;DHT22;3007;50.770;0.250;2023-05-07T01:27:31;14.10;99.90
5962;DHT22;3007;50.770;0.250;2023-05-07T01:29:59;14.10;99.90
5962;DHT22;3007;50.770;0.250;2023-05-07T01:32:31;14.10;99.90
5962;DHT22;3007;50.770;0.250;2023-05-07T01:35:00;14.20;99.90
5962;DHT22;3007;50.770;0.250;2023-05-07T01:37:28;14.20;99.90
5962;DHT22;3007;50.770;0.250;2023-05-07T01:39:57;14.20;99.90
5962;DHT22;3007;50.770;0.250;2023-05-07T01:42:24;14.20;99.90
5962;DHT22;3007;50.770;0.250;2023-05-07T01:44:51;14.20;99.90
5962;DHT22;3007;50.770;0.250;2023-05-07T01:47:19;14.20;99.90
5962;DHT22;3007;50.770;0.250;2023-05-07T01:49:47;14.20;99.90
5962;DHT22;3007;50.770;0.250;2023-05-07T01:52:14;14.30;99.90
5962;DHT22;3007;50.770;0.250;2023-05-07T01:54:41;14.20;99.90
5962;DHT22;3007;50.770;0.250;2023-05-07T01:57:09;14.30;99.90
5962;DHT22;3007;50.770;0.250;2023-05-07T01:59:36;14.20;99.90
5962;DHT22;3007;50.770;0.250;2023-05-07T02:02:03;14.30;99.90
5962;DHT22;3007;50.770;0.250;2023-05-07T02:04:30;14.30;99.90
5962;DHT22;3007;50.770;0.250;2023-05-07T02:06:57;14.30;99.90
5962;DHT22;3007;50.770;0.250;2023-05-07T02:09:24;14.30;99.90
5962;DHT22;3007;50.770;0.250;2023-05-07T02:11:51;14.30;99.90
5962;DHT22;3007;50.770;0.250;2023-05-07T02:14:19;14.30;99.90
5962;DHT22;3007;50.770;0.250;2023-05-07T02:16:46;14.30;99.90
5962;DHT22;3007;50.770;0.250;2023-05-07T02:19:13;14.40;99.90
5962;DHT22;3007;50.770;0.250;2023-05-07T02:21:40;14.30;99.90
5962;DHT22;3007;50.770;0.250;2023-05-07T02:24:07;14.30;99.90
5962;DHT22;3007;50.770;0.250;2023-05-07T02:26:34;14.30;99.90
5962;DHT22;3007;50.770;0.250;2023-05-07T02:29:01;14.30;99.90
5962;DHT22;3007;50.770;0.250;2023-05-07T02:31:29;14.30;99.90
5962;DHT22;3007;50.770;0.250;2023-05-07T02:33:58;14.30;99.90
5962;DHT22;3007;50.770;0.250;2023-05-07T02:36:25;14.30;99.90
5962;DHT22;3007;50.770;0.250;2023-05-07T02:38:52;14.30;99.90
5962;DHT22;3007;50.770;0.250;2023-05-07T02:41:19;14.20;99.90
5962;DHT22;3007;50.770;0.250;2023-05-07T02:43:46;14.20;99.90
5962;DHT22;3007;50.770;0.250;2023-05-07T02:46:12;14.20;99.90
5962;DHT22;3007;50.770;0.250;2023-05-07T02:48:41;14.20;99.90
5962;DHT22;3007;50.770;0.250;2023-05-07T02:51:08;14.10;99.90
5962;DHT22;3007;50.770;0.250;2023-05-07T02:53:35;14.10;99.90
5962;DHT22;3007;50.770;0.250;2023-05-07T02:56:02;14.00;99.90
5962;DHT22;3007;50.770;0.250;2023-05-07T02:58:29;13.90;99.90
5962;DHT22;3007;50.770;0.250;2023-05-07T03:00:56;13.90;99.90
5962;DHT22;3007;50.770;0.250;2023-05-07T03:03:23;13.90;99.90
5962;DHT22;3007;50.770;0.250;2023-05-07T03:05:51;13.80;99.90
5962;DHT22;3007;50.770;0.250;2023-05-07T03:08:18;13.80;99.90
5962;DHT22;3007;50.770;0.250;2023-05-07T03:10:45;13.80;99.90
5962;DHT22;3007;50.770;0.250;2023-05-07T03:13:11;13.80;99.90
5962;DHT22;3007;50.770;0.250;2023-05-07T03:15:38;13.80;99.90
5962;DHT22;3007;50.770;0.250;2023-05-07T03:18:05;13.80;99.90
5962;DHT22;3007;50.770;0.250;2023-05-07T03:20:32;13.80;99.90
5962;DHT22;3007;50.770;0.250;2023-05-07T03:23:00;13.70;99.90
5962;DHT22;3007;50.770;0.250;2023-05-07T03:25:27;13.70;99.90
5962;DHT22;3007;50.770;0.250;2023-05-07T03:27:55;13.70;99.90
5962;DHT22;3007;50.770;0.250;2023-05-07T03:30:22;13.70;99.90
5962;DHT22;3007;50.770;0.250;2023-05-07T03:32:49;13.70;99.90
5962;DHT22;3007;50.770;0.250;2023-05-07T03:35:16;13.70;99.90
5962;DHT22;3007;50.770;0.250;2023-05-07T03:37:43;13.70;99.90
5962;DHT22;3007;50.770;0.250;2023-05-07T03:40:11;13.60;99.90
5962;DHT22;3007;50.770;0.250;2023-05-07T03:42:38;13.50;99.90
5962;DHT22;3007;50.770;0.250;2023-05-07T03:45:06;13.50;99.90
5962;DHT22;3007;50.770;0.250;2023-05-07T03:47:33;13.40;99.90
5962;DHT22;3007;50.770;0.250;2023-05-07T03:50:00;13.30;99.90
5962;DHT22;3007;50.770;0.250;2023-05-07T03:52:27;13.30;99.90
5962;DHT22;3007;50.770;0.250;2023-05-07T03:54:54;13.20;99.90
5962;DHT22;3007;50.770;0.250;2023-05-07T03:57:22;13.20;99.90
5962;DHT22;3007;50.770;0.250;2023-05-07T03:59:49;13.20;99.90
5962;DHT22;3007;50.770;0.250;2023-05-07T04:02:16;13.10;99.90
5962;DHT22;3007;50.770;0.250;2023-05-07T04:04:43;13.10;99.90
5962;DHT22;3007;50.770;0.250;2023-05-07T04:07:09;13.00;99.90
5962;DHT22;3007;50.770;0.250;2023-05-07T04:09:36;13.00;99.90
5962;DHT22;3007;50.770;0.250;2023-05-07T04:12:04;12.90;99.90
5962;DHT22;3007;50.770;0.250;2023-05-07T04:14:32;12.80;99.90
5962;DHT22;3007;50.770;0.250;2023-05-07T04:16:59;12.70;99.90
5962;DHT22;3007;50.770;0.250;2023-05-07T04:19:26;12.70;99.90
5962;DHT22;3007;50.770;0.250;2023-05-07T04:21:52;12.60;99.90
5962;DHT22;3007;50.770;0.250;2023-05-07T04:24:20;12.60;99.90
5962;DHT22;3007;50.770;0.250;2023-05-07T04:26:46;12.60;99.90
5962;DHT22;3007;50.770;0.250;2023-05-07T04:29:13;12.50;99.90
5962;DHT22;3007;50.770;0.250;2023-05-07T04:31:42;12.50;99.90
5962;DHT22;3007;50.770;0.250;2023-05-07T04:34:10;12.50;99.90
5962;DHT22;3007;50.770;0.250;2023-05-07T04:36:38;12.40;99.90
5962;DHT22;3007;50.770;0.250;2023-05-07T04:39:05;12.40;99.90
5962;DHT22;3007;50.770;0.250;2023-05-07T04:41:32;12.40;99.90
5962;DHT22;3007;50.770;0.250;2023-05-07T04:43:59;12.30;99.90
5962;DHT22;3007;50.770;0.250;2023-05-07T04:46:25;12.30;99.90
5962;DHT22;3007;50.770;0.250;2023-05-07T04:48:54;12.30;99.90
5962;DHT22;3007;50.770;0.250;2023-05-07T04:51:21;12.30;99.90
5962;DHT22;3007;50.770;0.250;2023-05-07T04:53:48;12.40;99.90
5962;DHT22;3007;50.770;0.250;2023-05-07T04:56:15;12.30;99.90
5962;DHT22;3007;50.770;0.250;2023-05-07T04:58:41;12.30;99.90
5962;DHT22;3007;50.770;0.250;2023-05-07T05:01:08;12.30;99.90
5962;DHT22;3007;50.770;0.250;2023-05-07T05:03:36;12.30;99.90
5962;DHT22;3007;50.770;0.250;2023-05-07T05:06:04;12.40;99.90
5962;DHT22;3007;50.770;0.250;2023-05-07T05:08:31;12.40;99.90
5962;DHT22;3007;50.770;0.250;2023-05-07T05:10:58;12.50;99.90
5962;DHT22;3007;50.770;0.250;2023-05-07T05:13:27;12.60;99.90
5962;DHT22;3007;50.770;0.250;2023-05-07T05:15:53;12.60;99.90
5962;DHT22;3007;50.770;0.250;2023-05-07T05:18:21;12.60;99.90
5962;DHT22;3007;50.770;0.250;2023-05-07T05:20:48;12.70;99.90
5962;DHT22;3007;50.770;0.250;2023-05-07T05:23:16;12.70;99.90
5962;DHT22;3007;50.770;0.250;2023-05-07T05:25:43;12.70;99.90
5962;DHT22;3007;50.770;0.250;2023-05-07T05:28:10;12.70;99.90
5962;DHT22;3007;50.770;0.250;2023-05-07T05:30:37;12.80;99.90
5962;DHT22;3007;50.770;0.250;2023-05-07T05:33:04;12.90;99.90
5962;DHT22;3007;50.770;0.250;2023-05-07T05:35:30;13.00;99.90
5962;DHT22;3007;50.770;0.250;2023-05-07T05:37:58;13.10;99.90
5962;DHT22;3007;50.770;0.250;2023-05-07T05:40:26;13.10;99.90
5962;DHT22;3007;50.770;0.250;2023-05-07T05:42:53;13.10;99.90
5962;DHT22;3007;50.770;0.250;2023-05-07T05:45:20;13.10;99.90
5962;DHT22;3007;50.770;0.250;2023-05-07T05:47:46;13.00;99.90
5962;DHT22;3007;50.770;0.250;2023-05-07T05:50:13;13.00;99.90
5962;DHT22;3007;50.770;0.250;2023-05-07T05:52:40;13.10;99.90
5962;DHT22;3007;50.770;0.250;2023-05-07T05:55:08;13.00;99.90
5962;DHT22;3007;50.770;0.250;2023-05-07T05:57:36;13.00;99.90
5962;DHT22;3007;50.770;0.250;2023-05-07T06:00:04;13.00;99.90
5962;DHT22;3007;50.770;0.250;2023-05-07T06:02:31;13.00;99.90
5962;DHT22;3007;50.770;0.250;2023-05-07T06:04:58;13.10;99.90
5962;DHT22;3007;50.770;0.250;2023-05-07T06:07:25;13.50;99.90
5962;DHT22;3007;50.770;0.250;2023-05-07T06:09:52;13.90;99.90
5962;DHT22;3007;50.770;0.250;2023-05-07T06:12:19;14.20;99.90
5962;DHT22;3007;50.770;0.250;2023-05-07T06:14:47;14.30;99.90
5962;DHT22;3007;50.770;0.250;2023-05-07T06:17:14;14.50;99.90
5962;DHT22;3007;50.770;0.250;2023-05-07T06:19:41;14.90;99.90
5962;DHT22;3007;50.770;0.250;2023-05-07T06:22:07;15.60;99.90
5962;DHT22;3007;50.770;0.250;2023-05-07T06:24:35;16.20;99.90
5962;DHT22;3007;50.770;0.250;2023-05-07T06:27:02;16.80;99.90
5962;DHT22;3007;50.770;0.250;2023-05-07T06:29:29;17.60;99.90
5962;DHT22;3007;50.770;0.250;2023-05-07T06:32:06;18.10;99.90
5962;DHT22;3007;50.770;0.250;2023-05-07T06:34:33;18.30;99.90
5962;DHT22;3007;50.770;0.250;2023-05-07T06:37:00;18.20;99.90
5962;DHT22;3007;50.770;0.250;2023-05-07T06:39:27;18.10;99.90
5962;DHT22;3007;50.770;0.250;2023-05-07T06:41:54;18.40;99.90
5962;DHT22;3007;50.770;0.250;2023-05-07T06:44:20;18.40;99.90
5962;DHT22;3007;50.770;0.250;2023-05-07T06:46:47;18.30;99.90
5962;DHT22;3007;50.770;0.250;2023-05-07T06:49:16;18.00;99.90
5962;DHT22;3007;50.770;0.250;2023-05-07T06:51:42;17.90;99.90
5962;DHT22;3007;50.770;0.250;2023-05-07T06:54:09;17.90;99.90
5962;DHT22;3007;50.770;0.250;2023-05-07T06:56:38;17.80;99.90
5962;DHT22;3007;50.770;0.250;2023-05-07T06:59:06;17.70;99.90
5962;DHT22;3007;50.770;0.250;2023-05-07T07:01:33;17.60;99.90
5962;DHT22;3007;50.770;0.250;2023-05-07T07:04:00;17.50;99.90
5962;DHT22;3007;50.770;0.250;2023-05-07T07:06:28;17.30;99.90
5962;DHT22;3007;50.770;0.250;2023-05-07T07:08:57;17.10;99.90
5962;DHT22;3007;50.770;0.250;2023-05-07T07:11:24;17.10;99.90
5962;DHT22;3007;50.770;0.250;2023-05-07T07:13:51;17.00;99.90
5962;DHT22;3007;50.770;0.250;2023-05-07T07:16:19;16.80;99.90
5962;DHT22;3007;50.770;0.250;2023-05-07T07:18:46;16.60;99.90
5962;DHT22;3007;50.770;0.250;2023-05-07T07:21:13;16.50;99.90
5962;DHT22;3007;50.770;0.250;2023-05-07T07:23:41;16.40;99.90
5962;DHT22;3007;50.770;0.250;2023-05-07T07:26:08;16.40;99.90
5962;DHT22;3007;50.770;0.250;2023-05-07T07:28:36;16.50;99.90
5962;DHT22;3007;50.770;0.250;2023-05-07T07:31:08;16.50;99.90
5962;DHT22;3007;50.770;0.250;2023-05-07T07:33:35;16.60;99.90
5962;DHT22;3007;50.770;0.250;2023-05-07T07:36:01;16.60;99.90
5962;DHT22;3007;50.770;0.250;2023-05-07T07:38:28;16.60;99.90
5962;DHT22;3007;50.770;0.250;2023-05-07T07:40:57;16.60;99.90
5962;DHT22;3007;50.770;0.250;2023-05-07T07:43:23;16.80;99.90
5962;DHT22;3007;50.770;0.250;2023-05-07T07:45:50;16.80;99.90
5962;DHT22;3007;50.770;0.250;2023-05-07T07:48:17;16.80;99.90
5962;DHT22;3007;50.770;0.250;2023-05-07T07:50:44;16.90;99.90
5962;DHT22;3007;50.770;0.250;2023-05-07T07:53:11;16.90;99.90
5962;DHT22;3007;50.770;0.250;2023-05-07T07:55:38;16.90;99.90
5962;DHT22;3007;50.770;0.250;2023-05-07T07:58:07;16.80;99.90
5962;DHT22;3007;50.770;0.250;2023-05-07T08:00:34;16.90;99.90
5962;DHT22;3007;50.770;0.250;2023-05-07T08:03:01;16.80;99.90
5962;DHT22;3007;50.770;0.250;2023-05-07T08:05:28;16.80;99.90
5962;DHT22;3007;50.770;0.250;2023-05-07T08:07:55;16.80;99.90
5962;DHT22;3007;50.770;0.250;2023-05-07T08:10:22;16.70;99.90
5962;DHT22;3007;50.770;0.250;2023-05-07T08:12:49;16.70;99.90
5962;DHT22;3007;50.770;0.250;2023-05-07T08:15:18;16.60;99.90
5962;DHT22;3007;50.770;0.250;2023-05-07T08:17:45;16.50;99.90
5962;DHT22;3007;50.770;0.250;2023-05-07T08:20:12;16.50;99.90
5962;DHT22;3007;50.770;0.250;2023-05-07T08:22:39;16.50;99.90
5962;DHT22;3007;50.770;0.250;2023-05-07T08:25:06;16.50;99.90
5962;DHT22;3007;50.770;0.250;2023-05-07T08:27:33;16.50;99.90
5962;DHT22;3007;50.770;0.250;2023-05-07T08:30:00;16.50;99.90
5962;DHT22;3007;50.770;0.250;2023-05-07T08:32:28;16.50;99.90
5962;DHT22;3007;50.770;0.250;2023-05-07T08:34:55;16.50;99.90
5962;DHT22;3007;50.770;0.250;2023-05-07T08:37:22;16.60;99.90
5962;DHT22;3007;50.770;0.250;2023-05-07T08:39:49;16.50;99.90
5962;DHT22;3007;50.770;0.250;2023-05-07T08:42:16;16.50;99.90
5962;DHT22;3007;50.770;0.250;2023-05-07T08:44:45;16.60;99.90
5962;DHT22;3007;50.770;0.250;2023-05-07T08:47:13;16.60;99.90
5962;DHT22;3007;50.770;0.250;2023-05-07T08:49:41;16.50;99.90
5962;DHT22;3007;50.770;0.250;2023-05-07T08:52:08;16.40;99.90
5962;DHT22;3007;50.770;0.250;2023-05-07T08:54:37;16.40;99.90
5962;DHT22;3007;50.770;0.250;2023-05-07T08:57:04;16.40;99.90
5962;DHT22;3007;50.770;0.250;2023-05-07T08:59:31;16.50;99.90
5962;DHT22;3007;50.770;0.250;2023-05-07T09:01:58;16.60;99.90
5962;DHT22;3007;50.770;0.250;2023-05-07T09:04:25;16.60;99.90
5962;DHT22;3007;50.770;0.250;2023-05-07T09:06:53;16.60;99.90
5962;DHT22;3007;50.770;0.250;2023-05-07T09:09:22;16.60;99.90
5962;DHT22;3007;50.770;0.250;2023-05-07T09:11:51;16.70;99.90
5962;DHT22;3007;50.770;0.250;2023-05-07T09:14:24;16.90;99.90
5962;DHT22;3007;50.770;0.250;2023-05-07T09:16:52;17.10;99.90
5962;DHT22;3007;50.770;0.250;2023-05-07T09:19:22;17.20;99.90
5962;DHT22;3007;50.770;0.250;2023-05-07T09:21:50;17.30;99.90
5962;DHT22;3007;50.770;0.250;2023-05-07T09:24:18;17.30;99.90
5962;DHT22;3007;50.770;0.250;2023-05-07T09:26:45;17.40;99.90
5962;DHT22;3007;50.770;0.250;2023-05-07T09:29:12;17.40;99.90
5962;DHT22;3007;50.770;0.250;2023-05-07T09:31:39;17.50;99.90
5962;DHT22;3007;50.770;0.250;2023-05-07T09:34:06;17.50;99.90
5962;DHT22;3007;50.770;0.250;2023-05-07T09:36:33;17.60;99.90
5962;DHT22;3007;50.770;0.250;2023-05-07T09:39:00;17.70;99.90
5962;DHT22;3007;50.770;0.250;2023-05-07T09:41:30;17.80;99.90
5962;DHT22;3007;50.770;0.250;2023-05-07T09:43:58;17.80;99.90
5962;DHT22;3007;50.770;0.250;2023-05-07T09:46:29;17.90;99.90
5962;DHT22;3007;50.770;0.250;2023-05-07T09:48:57;17.90;99.90
5962;DHT22;3007;50.770;0.250;2023-05-07T09:51:28;17.80;99.90
5962;DHT22;3007;50.770;0.250;2023-05-07T09:53:57;17.70;99.90
5962;DHT22;3007;50.770;0.250;2023-05-07T09:56:25;17.70;99.90
5962;DHT22;3007;50.770;0.250;2023-05-07T09:58:56;17.80;99.90
5962;DHT22;3007;50.770;0.250;2023-05-07T10:01:25;17.90;99.90
5962;DHT22;3007;50.770;0.250;2023-05-07T10:03:52;18.00;99.90
5962;DHT22;3007;50.770;0.250;2023-05-07T10:06:20;18.10;99.90
5962;DHT22;3007;50.770;0.250;2023-05-07T10:08:48;18.20;99.90
5962;DHT22;3007;50.770;0.250;2023-05-07T10:11:16;18.20;99.90
5962;DHT22;3007;50.770;0.250;2023-05-07T10:13:43;18.40;99.90
5962;DHT22;3007;50.770;0.250;2023-05-07T10:16:12;18.60;99.90
5962;DHT22;3007;50.770;0.250;2023-05-07T10:18:40;18.70;99.90
5962;DHT22;3007;50.770;0.250;2023-05-07T10:21:11;18.80;99.90
5962;DHT22;3007;50.770;0.250;2023-05-07T10:23:38;18.90;99.90
5962;DHT22;3007;50.770;0.250;2023-05-07T10:26:07;19.00;99.90
5962;DHT22;3007;50.770;0.250;2023-05-07T10:28:37;19.20;99.90
5962;DHT22;3007;50.770;0.250;2023-05-07T10:31:22;19.20;99.90
5962;DHT22;3007;50.770;0.250;2023-05-07T10:33:55;19.40;99.90
5962;DHT22;3007;50.770;0.250;2023-05-07T10:36:23;19.60;99.90
5962;DHT22;3007;50.770;0.250;2023-05-07T10:38:51;19.70;99.90
5962;DHT22;3007;50.770;0.250;2023-05-07T10:41:19;19.60;99.90
5962;DHT22;3007;50.770;0.250;2023-05-07T10:43:46;19.50;99.90
5962;DHT22;3007;50.770;0.250;2023-05-07T10:46:17;19.50;99.90
5962;DHT22;3007;50.770;0.250;2023-05-07T10:49:11;19.50;99.90
5962;DHT22;3007;50.770;0.250;2023-05-07T10:51:39;19.50;99.90
5962;DHT22;3007;50.770;0.250;2023-05-07T10:54:22;19.50;99.90
5962;DHT22;3007;50.770;0.250;2023-05-07T10:56:50;19.70;99.90
5962;DHT22;3007;50.770;0.250;2023-05-07T10:59:33;19.80;99.90
5962;DHT22;3007;50.770;0.250;2023-05-07T11:02:07;19.90;99.90
5962;DHT22;3007;50.770;0.250;2023-05-07T11:04:36;19.90;99.90
5962;DHT22;3007;50.770;0.250;2023-05-07T11:07:27;19.90;99.90
5962;DHT22;3007;50.770;0.250;2023-05-07T11:09:59;20.00;99.90
5962;DHT22;3007;50.770;0.250;2023-05-07T11:12:52;20.10;99.90
5962;DHT22;3007;50.770;0.250;2023-05-07T11:15:43;20.30;99.90
5962;DHT22;3007;50.770;0.250;2023-05-07T11:18:12;20.20;99.90
5962;DHT22;3007;50.770;0.250;2023-05-07T11:20:56;20.10;99.90
5962;DHT22;3007;50.770;0.250;2023-05-07T11:26:47;19.80;99.90
5962;DHT22;3007;50.770;0.250;2023-05-07T11:29:16;19.70;99.90
5962;DHT22;3007;50.770;0.250;2023-05-07T11:31:43;19.70;99.90
5962;DHT22;3007;50.770;0.250;2023-05-07T11:34:12;19.70;99.90
5962;DHT22;3007;50.770;0.250;2023-05-07T11:36:42;19.60;99.90
5962;DHT22;3007;50.770;0.250;2023-05-07T11:39:30;19.50;99.90
5962;DHT22;3007;50.770;0.250;2023-05-07T11:41:58;19.50;99.90
5962;DHT22;3007;50.770;0.250;2023-05-07T11:44:25;19.60;99.90
5962;DHT22;3007;50.770;0.250;2023-05-07T11:47:05;19.60;99.90
5962;DHT22;3007;50.770;0.250;2023-05-07T11:49:34;19.70;99.90
5962;DHT22;3007;50.770;0.250;2023-05-07T11:52:01;20.00;99.90
5962;DHT22;3007;50.770;0.250;2023-05-07T11:54:35;20.10;99.90
5962;DHT22;3007;50.770;0.250;2023-05-07T11:57:02;20.30;99.90
5962;DHT22;3007;50.770;0.250;2023-05-07T11:59:29;20.40;99.90
5962;DHT22;3007;50.770;0.250;2023-05-07T12:01:56;20.40;99.90
5962;DHT22;3007;50.770;0.250;2023-05-07T12:04:24;20.50;99.90
5962;DHT22;3007;50.770;0.250;2023-05-07T12:06:55;20.60;99.90
5962;DHT22;3007;50.770;0.250;2023-05-07T12:09:22;20.60;99.90
5962;DHT22;3007;50.770;0.250;2023-05-07T12:11:49;20.50;99.90
5962;DHT22;3007;50.770;0.250;2023-05-07T12:14:18;20.50;99.90
5962;DHT22;3007;50.770;0.250;2023-05-07T12:16:45;20.50;99.90
5962;DHT22;3007;50.770;0.250;2023-05-07T12:19:13;20.40;99.90
5962;DHT22;3007;50.770;0.250;2023-05-07T12:21:40;20.50;99.90
5962;DHT22;3007;50.770;0.250;2023-05-07T12:24:09;20.70;99.90
5962;DHT22;3007;50.770;0.250;2023-05-07T12:26:38;20.70;99.90
5962;DHT22;3007;50.770;0.250;2023-05-07T12:29:06;20.80;99.90
5962;DHT22;3007;50.770;0.250;2023-05-07T12:31:33;20.80;99.90
5962;DHT22;3007;50.770;0.250;2023-05-07T12:34:00;20.70;99.90
5962;DHT22;3007;50.770;0.250;2023-05-07T12:36:36;20.60;99.90
5962;DHT22;3007;50.770;0.250;2023-05-07T12:39:04;20.60;99.90
5962;DHT22;3007;50.770;0.250;2023-05-07T12:41:36;20.50;99.90
5962;DHT22;3007;50.770;0.250;2023-05-07T12:44:04;20.40;99.90
5962;DHT22;3007;50.770;0.250;2023-05-07T12:46:31;20.40;99.90
5962;DHT22;3007;50.770;0.250;2023-05-07T12:48:59;20.30;99.90
5962;DHT22;3007;50.770;0.250;2023-05-07T12:51:27;20.30;99.90
5962;DHT22;3007;50.770;0.250;2023-05-07T12:53:56;20.20;99.90
5962;DHT22;3007;50.770;0.250;2023-05-07T12:56:23;20.30;99.90
5962;DHT22;3007;50.770;0.250;2023-05-07T12:58:51;20.30;99.90
5962;DHT22;3007;50.770;0.250;2023-05-07T13:01:29;20.50;99.90
5962;DHT22;3007;50.770;0.250;2023-05-07T13:04:00;20.70;99.90
5962;DHT22;3007;50.770;0.250;2023-05-07T13:06:27;20.90;99.90
5962;DHT22;3007;50.770;0.250;2023-05-07T13:08:54;21.00;99.90
5962;DHT22;3007;50.770;0.250;2023-05-07T13:11:21;21.20;99.90
5962;DHT22;3007;50.770;0.250;2023-05-07T13:13:48;21.20;99.90
5962;DHT22;3007;50.770;0.250;2023-05-07T13:16:16;21.30;99.90
5962;DHT22;3007;50.770;0.250;2023-05-07T13:18:43;21.30;99.90
5962;DHT22;3007;50.770;0.250;2023-05-07T13:21:11;21.20;99.90
5962;DHT22;3007;50.770;0.250;2023-05-07T13:23:39;21.20;99.90
5962;DHT22;3007;50.770;0.250;2023-05-07T13:26:06;21.10;99.90
5962;DHT22;3007;50.770;0.250;2023-05-07T13:28:32;21.00;99.90
5962;DHT22;3007;50.770;0.250;2023-05-07T13:30:59;20.90;99.90
5962;DHT22;3007;50.770;0.250;2023-05-07T13:33:27;20.90;99.90
5962;DHT22;3007;50.770;0.250;2023-05-07T13:35:54;20.80;99.90
5962;DHT22;3007;50.770;0.250;2023-05-07T13:38:22;20.70;99.90
5962;DHT22;3007;50.770;0.250;2023-05-07T13:40:49;20.70;99.90
5962;DHT22;3007;50.770;0.250;2023-05-07T13:43:18;20.80;99.90
5962;DHT22;3007;50.770;0.250;2023-05-07T13:45:47;20.80;99.90
5962;DHT22;3007;50.770;0.250;2023-05-07T13:48:14;20.80;99.90
5962;DHT22;3007;50.770;0.250;2023-05-07T13:50:42;20.80;99.90
5962;DHT22;3007;50.770;0.250;2023-05-07T13:53:09;20.90;99.90
5962;DHT22;3007;50.770;0.250;2023-05-07T13:55:36;21.00;99.90
5962;DHT22;3007;50.770;0.250;2023-05-07T13:58:03;21.00;99.90
5962;DHT22;3007;50.770;0.250;2023-05-07T14:00:30;21.00;99.90
5962;DHT22;3007;50.770;0.250;2023-05-07T14:02:57;21.00;99.90
5962;DHT22;3007;50.770;0.250;2023-05-07T14:05:24;21.00;99.90
5962;DHT22;3007;50.770;0.250;2023-05-07T14:07:53;21.00;99.90
5962;DHT22;3007;50.770;0.250;2023-05-07T14:10:20;21.00;99.90
5962;DHT22;3007;50.770;0.250;2023-05-07T14:12:47;20.90;99.90
5962;DHT22;3007;50.770;0.250;2023-05-07T14:15:15;20.80;99.90
5962;DHT22;3007;50.770;0.250;2023-05-07T14:17:42;20.70;99.90
5962;DHT22;3007;50.770;0.250;2023-05-07T14:20:09;20.50;99.90
5962;DHT22;3007;50.770;0.250;2023-05-07T14:22:37;20.40;99.90
5962;DHT22;3007;50.770;0.250;2023-05-07T14:25:06;20.40;99.90
5962;DHT22;3007;50.770;0.250;2023-05-07T14:27:34;20.30;99.90
5962;DHT22;3007;50.770;0.250;2023-05-07T14:30:01;20.40;99.90
5962;DHT22;3007;50.770;0.250;2023-05-07T14:32:28;20.40;99.90
5962;DHT22;3007;50.770;0.250;2023-05-07T14:34:55;20.40;99.90
5962;DHT22;3007;50.770;0.250;2023-05-07T14:37:22;20.40;99.90
5962;DHT22;3007;50.770;0.250;2023-05-07T14:39:49;20.30;99.90
5962;DHT22;3007;50.770;0.250;2023-05-07T14:42:18;20.20;99.90
5962;DHT22;3007;50.770;0.250;2023-05-07T14:44:45;20.00;99.90
5962;DHT22;3007;50.770;0.250;2023-05-07T14:47:13;19.90;99.90
5962;DHT22;3007;50.770;0.250;2023-05-07T14:49:41;19.70;99.90
5962;DHT22;3007;50.770;0.250;2023-05-07T14:52:08;19.50;99.90
5962;DHT22;3007;50.770;0.250;2023-05-07T14:54:37;19.30;99.90
5962;DHT22;3007;50.770;0.250;2023-05-07T14:57:04;19.20;99.90
5962;DHT22;3007;50.770;0.250;2023-05-07T14:59:33;19.00;99.90
5962;DHT22;3007;50.770;0.250;2023-05-07T15:02:00;18.90;99.90
5962;DHT22;3007;50.770;0.250;2023-05-07T15:04:27;18.80;99.90
5962;DHT22;3007;50.770;0.250;2023-05-07T15:06:54;18.70;99.90
5962;DHT22;3007;50.770;0.250;2023-05-07T15:09:21;18.60;99.90
5962;DHT22;3007;50.770;0.250;2023-05-07T15:11:48;18.50;99.90
5962;DHT22;3007;50.770;0.250;2023-05-07T15:14:15;18.50;99.90
5962;DHT22;3007;50.770;0.250;2023-05-07T15:16:43;18.40;99.90
5962;DHT22;3007;50.770;0.250;2023-05-07T15:19:10;18.40;99.90
5962;DHT22;3007;50.770;0.250;2023-05-07T15:21:37;18.30;99.90
5962;DHT22;3007;50.770;0.250;2023-05-07T15:24:05;18.30;99.90
5962;DHT22;3007;50.770;0.250;2023-05-07T15:26:32;18.30;99.90
5962;DHT22;3007;50.770;0.250;2023-05-07T15:28:59;18.30;99.90
5962;DHT22;3007;50.770;0.250;2023-05-07T15:31:25;18.30;99.90
5962;DHT22;3007;50.770;0.250;2023-05-07T15:33:53;18.30;99.90
5962;DHT22;3007;50.770;0.250;2023-05-07T15:36:21;18.30;99.90
5962;DHT22;3007;50.770;0.250;2023-05-07T15:38:49;18.20;99.90
5962;DHT22;3007;50.770;0.250;2023-05-07T15:41:16;18.20;99.90
5962;DHT22;3007;50.770;0.250;2023-05-07T15:43:45;18.10;99.90
5962;DHT22;3007;50.770;0.250;2023-05-07T15:46:17;18.00;99.90
5962;DHT22;3007;50.770;0.250;2023-05-07T15:48:44;18.00;99.90
5962;DHT22;3007;50.770;0.250;2023-05-07T15:51:12;17.90;99.90
5962;DHT22;3007;50.770;0.250;2023-05-07T15:53:39;17.80;99.90
5962;DHT22;3007;50.770;0.250;2023-05-07T15:56:06;17.70;99.90
5962;DHT22;3007;50.770;0.250;2023-05-07T15:58:33;17.50;99.90
5962;DHT22;3007;50.770;0.250;2023-05-07T16:01:00;17.50;99.90
5962;DHT22;3007;50.770;0.250;2023-05-07T16:03:27;17.40;99.90
5962;DHT22;3007;50.770;0.250;2023-05-07T16:05:54;17.40;99.90
5962;DHT22;3007;50.770;0.250;2023-05-07T16:08:23;17.30;99.90
5962;DHT22;3007;50.770;0.250;2023-05-07T16:10:50;17.30;99.90